Time;durP1;ratioP1;P1;durP2;ratioP2;P2;SDS_P1;SDS_P2;PMS_P1;PMS_P2;Temp;Humidity;BMP_temperature;BMP_pressure;BME280_temperature;BME280_humidity;BME280_pressure;Samples;Min_cycle;Max_cycle;Signal;HPM_P1;HPM_P2
2022/09/11 00:00:04;;;;;;;;;;;22.60;62.80;;;;;;5005373;28;20397;-74
2022/09/11 00:02:30;;;;;;;;;;;22.50;62.70;;;;;;5007074;28;20292;-74
2022/09/11 00:04:55;;;;;;;;;;;22.50;62.60;;;;;;4993377;28;20514;-75
2022/09/11 00:07:21;;;;;;;;;;;22.50;62.60;;;;;;4998819;28;19940;-74
2022/09/11 00:09:46;;;;;;;;;;;22.60;62.60;;;;;;5010734;28;20447;-75
2022/09/11 00:12:11;;;;;;;;;;;22.60;62.50;;;;;;5014312;28;20344;-75
2022/09/11 00:14:37;;;;;;;;;;;22.60;62.60;;;;;;5014493;28;19918;-75
2022/09/11 00:17:03;;;;;;;;;;;22.50;62.70;;;;;;5028472;28;19960;-75
2022/09/11 00:19:29;;;;;;;;;;;22.60;62.70;;;;;;4995618;28;19917;-76
2022/09/11 00:21:56;;;;;;;;;;;22.50;62.60;;;;;;5004240;28;19926;-76
2022/09/11 00:24:21;;;;;;;;;;;22.50;62.80;;;;;;4988857;28;20324;-75
2022/09/11 00:26:47;;;;;;;;;;;22.40;63.00;;;;;;5008290;28;19924;-75
2022/09/11 00:29:12;;;;;;;;;;;22.40;62.80;;;;;;5005536;28;19921;-75
2022/09/11 00:31:38;;;;;;;;;;;22.50;63.60;;;;;;5007361;28;19917;-75
2022/09/11 00:34:03;;;;;;;;;;;22.50;62.80;;;;;;4988782;28;19925;-75
2022/09/11 00:36:30;;;;;;;;;;;22.40;62.90;;;;;;5001453;28;20023;-75
2022/09/11 00:38:56;;;;;;;;;;;22.40;63.00;;;;;;5005801;28;19921;-75
2022/09/11 00:41:26;;;;;;;;;;;22.50;62.90;;;;;;4990500;28;19924;-75
2022/09/11 00:43:54;;;;;;;;;;;22.50;62.90;;;;;;5004013;28;20016;-75
2022/09/11 00:46:19;;;;;;;;;;;22.40;62.90;;;;;;5000278;28;19914;-75
2022/09/11 00:48:48;;;;;;;;;;;22.40;62.90;;;;;;5005813;28;19960;-74
2022/09/11 00:51:16;;;;;;;;;;;22.50;63.00;;;;;;5005784;28;19913;-76
2022/09/11 00:53:42;;;;;;;;;;;22.50;62.90;;;;;;5004601;28;20270;-75
2022/09/11 00:56:08;;;;;;;;;;;22.40;62.90;;;;;;5001237;28;19921;-76
2022/09/11 00:58:35;;;;;;;;;;;22.40;63.20;;;;;;5007481;28;19921;-75
2022/09/11 01:01:01;;;;;;;;;;;22.40;63.10;;;;;;4985606;28;19933;-75
2022/09/11 01:03:26;;;;;;;;;;;22.40;63.10;;;;;;4998951;28;20092;-75
2022/09/11 01:05:52;;;;;;;;;;;22.40;63.00;;;;;;5000780;28;19953;-75
2022/09/11 01:08:17;;;;;;;;;;;22.50;62.90;;;;;;5004384;28;20336;-75
2022/09/11 01:10:59;;;;;;;;;;;22.50;62.90;;;;;;4991253;28;19933;-75
2022/09/11 01:13:31;;;;;;;;;;;22.50;62.90;;;;;;4987481;28;19917;-75
2022/09/11 01:16:07;;;;;;;;;;;22.40;62.90;;;;;;5005948;28;19917;-76
2022/09/11 01:18:34;;;;;;;;;;;22.40;62.90;;;;;;5006870;28;19921;-76
2022/09/11 01:21:17;;;;;;;;;;;22.50;62.90;;;;;;5003880;28;19968;-74
2022/09/11 01:23:53;;;;;;;;;;;22.50;62.80;;;;;;5001610;28;20288;-75
2022/09/11 01:26:25;;;;;;;;;;;22.50;62.80;;;;;;5007026;28;19914;-76
2022/09/11 01:28:56;;;;;;;;;;;22.40;63.00;;;;;;5000587;28;20411;-75
2022/09/11 01:31:22;;;;;;;;;;;22.40;63.00;;;;;;5002710;28;19925;-75
2022/09/11 01:33:54;;;;;;;;;;;22.30;63.20;;;;;;5006514;28;19919;-75
2022/09/11 01:36:20;;;;;;;;;;;22.40;63.20;;;;;;5006587;28;20671;-76
2022/09/11 01:38:56;;;;;;;;;;;22.30;63.30;;;;;;5002667;28;19949;-75
2022/09/11 01:41:39;;;;;;;;;;;22.30;63.30;;;;;;4987523;28;20044;-75
2022/09/11 01:44:06;;;;;;;;;;;22.40;63.30;;;;;;5011352;28;20401;-75
2022/09/11 01:46:34;;;;;;;;;;;22.40;63.10;;;;;;5006298;28;19922;-74
2022/09/11 01:49:03;;;;;;;;;;;22.40;63.00;;;;;;5007048;28;19921;-75
2022/09/11 01:51:29;;;;;;;;;;;22.40;63.00;;;;;;5005893;28;19997;-75
2022/09/11 01:53:55;;;;;;;;;;;22.40;63.00;;;;;;4989470;28;19918;-74
2022/09/11 01:56:21;;;;;;;;;;;22.40;63.00;;;;;;5009353;28;19971;-75
2022/09/11 01:58:47;;;;;;;;;;;22.40;63.00;;;;;;5009275;28;19917;-76
2022/09/11 02:01:15;;;;;;;;;;;22.40;63.10;;;;;;5008186;28;19933;-74
2022/09/11 02:03:44;;;;;;;;;;;22.40;63.10;;;;;;5009760;28;19918;-74
2022/09/11 02:06:12;;;;;;;;;;;22.40;63.10;;;;;;4988344;28;20317;-74
2022/09/11 02:08:43;;;;;;;;;;;22.40;63.00;;;;;;5010622;28;19921;-75
2022/09/11 02:11:10;;;;;;;;;;;22.40;63.10;;;;;;4992506;28;19921;-75
2022/09/11 02:13:41;;;;;;;;;;;22.40;63.00;;;;;;4995684;28;19921;-75
2022/09/11 02:16:13;;;;;;;;;;;22.40;63.10;;;;;;5011182;28;19929;-76
2022/09/11 02:18:43;;;;;;;;;;;22.40;63.00;;;;;;5002583;28;19944;-76
2022/09/11 02:21:09;;;;;;;;;;;22.40;63.00;;;;;;5007122;28;19956;-75
2022/09/11 02:23:34;;;;;;;;;;;22.40;63.00;;;;;;5005160;28;20007;-75
2022/09/11 02:26:00;;;;;;;;;;;22.40;63.60;;;;;;4998016;28;19945;-76
2022/09/11 02:28:25;;;;;;;;;;;22.40;63.00;;;;;;4998387;28;19921;-75
2022/09/11 02:30:50;;;;;;;;;;;22.40;63.00;;;;;;5014355;28;19913;-75
2022/09/11 02:33:45;;;;;;;;;;;22.40;63.00;;;;;;5015964;28;20012;-75
2022/09/11 02:36:11;;;;;;;;;;;22.40;63.00;;;;;;5006328;28;19914;-75
2022/09/11 02:38:51;;;;;;;;;;;22.40;63.10;;;;;;5014907;28;19920;-75
2022/09/11 02:41:19;;;;;;;;;;;22.40;63.10;;;;;;5010224;28;20385;-74
2022/09/11 02:43:44;;;;;;;;;;;22.30;63.00;;;;;;5008646;28;19914;-74
2022/09/11 02:46:11;;;;;;;;;;;22.40;63.00;;;;;;5011591;28;19920;-74
2022/09/11 02:48:44;;;;;;;;;;;22.40;63.10;;;;;;5007215;28;20000;-75
2022/09/11 02:51:14;;;;;;;;;;;22.40;63.10;;;;;;5000810;28;20008;-75
2022/09/11 02:53:43;;;;;;;;;;;22.40;63.00;;;;;;4991000;28;19963;-75
2022/09/11 02:56:35;;;;;;;;;;;22.40;63.00;;;;;;5003693;28;20080;-75
2022/09/11 02:59:02;;;;;;;;;;;22.40;63.10;;;;;;4985440;28;19928;-76
2022/09/11 03:01:28;;;;;;;;;;;22.40;63.10;;;;;;5005114;28;20262;-76
2022/09/11 03:03:53;;;;;;;;;;;22.30;63.00;;;;;;5005816;28;19979;-76
2022/09/11 03:06:19;;;;;;;;;;;22.40;63.10;;;;;;5002314;28;19914;-75
2022/09/11 03:08:45;;;;;;;;;;;22.40;63.00;;;;;;4991813;28;19920;-75
2022/09/11 03:11:10;;;;;;;;;;;22.40;63.00;;;;;;5004883;28;19921;-75
2022/09/11 03:13:36;;;;;;;;;;;22.30;63.00;;;;;;5005853;28;19913;-75
2022/09/11 03:16:03;;;;;;;;;;;22.30;62.90;;;;;;5010225;28;19917;-75
2022/09/11 03:18:29;;;;;;;;;;;22.30;62.90;;;;;;5005703;28;19914;-75
2022/09/11 03:20:54;;;;;;;;;;;22.30;63.10;;;;;;5008630;28;20292;-76
2022/09/11 03:23:20;;;;;;;;;;;22.30;63.20;;;;;;5006867;28;19920;-75
2022/09/11 03:25:46;;;;;;;;;;;22.30;63.00;;;;;;5010517;28;19913;-75
2022/09/11 03:28:11;;;;;;;;;;;22.30;63.10;;;;;;5008245;28;19914;-74
2022/09/11 03:30:38;;;;;;;;;;;22.30;63.00;;;;;;5007402;28;19960;-74
2022/09/11 03:33:03;;;;;;;;;;;22.30;62.90;;;;;;4991592;28;19925;-75
2022/09/11 03:35:29;;;;;;;;;;;22.30;62.90;;;;;;5005588;28;19917;-74
2022/09/11 03:37:54;;;;;;;;;;;22.30;63.00;;;;;;5008480;28;19917;-75
2022/09/11 03:40:20;;;;;;;;;;;22.30;63.10;;;;;;5007616;28;21771;-75
2022/09/11 03:42:46;;;;;;;;;;;22.30;62.90;;;;;;5010203;28;19924;-75
2022/09/11 03:45:13;;;;;;;;;;;22.30;63.00;;;;;;5004650;28;20370;-74
2022/09/11 03:47:39;;;;;;;;;;;22.30;62.90;;;;;;5005099;28;19913;-74
2022/09/11 03:50:04;;;;;;;;;;;22.30;62.90;;;;;;5007815;28;19913;-75
2022/09/11 03:52:30;;;;;;;;;;;22.30;63.00;;;;;;5005412;28;20001;-75
2022/09/11 03:54:56;;;;;;;;;;;22.30;63.00;;;;;;5009996;28;19917;-75
2022/09/11 03:57:22;;;;;;;;;;;22.30;63.00;;;;;;5009198;28;19956;-75
2022/09/11 03:59:47;;;;;;;;;;;22.30;62.90;;;;;;4990912;28;19971;-74
2022/09/11 04:02:12;;;;;;;;;;;22.20;63.10;;;;;;5005546;28;19925;-75
2022/09/11 04:04:38;;;;;;;;;;;22.20;63.10;;;;;;5000071;28;20017;-76
2022/09/11 04:07:03;;;;;;;;;;;22.20;63.00;;;;;;5006413;28;19993;-75
2022/09/11 04:09:30;;;;;;;;;;;22.20;63.00;;;;;;5004429;28;19925;-76
2022/09/11 04:11:56;;;;;;;;;;;22.20;63.00;;;;;;5006789;28;20429;-75
2022/09/11 04:14:21;;;;;;;;;;;22.20;63.00;;;;;;5007139;28;20335;-75
2022/09/11 04:16:47;;;;;;;;;;;22.30;62.90;;;;;;5006174;28;19917;-75
2022/09/11 04:19:13;;;;;;;;;;;22.30;62.80;;;;;;5005788;28;20397;-75
2022/09/11 04:21:39;;;;;;;;;;;22.30;62.70;;;;;;4989587;28;19921;-75
2022/09/11 04:24:04;;;;;;;;;;;22.30;62.80;;;;;;4990797;28;19914;-75
2022/09/11 04:26:30;;;;;;;;;;;22.30;62.80;;;;;;4990922;28;20384;-75
2022/09/11 04:28:57;;;;;;;;;;;22.30;62.80;;;;;;5007380;28;19992;-75
2022/09/11 04:31:22;;;;;;;;;;;22.30;62.80;;;;;;5007272;28;20432;-75
2022/09/11 04:33:48;;;;;;;;;;;22.30;62.80;;;;;;5004644;28;19968;-75
2022/09/11 04:36:17;;;;;;;;;;;22.30;62.80;;;;;;5006526;28;19918;-74
2022/09/11 04:38:43;;;;;;;;;;;22.20;62.70;;;;;;4989896;28;20399;-76
2022/09/11 04:41:08;;;;;;;;;;;22.20;62.90;;;;;;5005206;28;19961;-74
2022/09/11 04:43:34;;;;;;;;;;;22.20;62.80;;;;;;4992773;28;19976;-76
2022/09/11 04:46:00;;;;;;;;;;;22.20;63.00;;;;;;5007386;28;19921;-75
2022/09/11 04:48:26;;;;;;;;;;;22.10;63.00;;;;;;4990185;28;20404;-75
2022/09/11 04:51:04;;;;;;;;;;;22.10;63.00;;;;;;5002622;28;20401;-75
2022/09/11 04:53:31;;;;;;;;;;;22.10;63.00;;;;;;4988571;28;19914;-75
2022/09/11 04:56:02;;;;;;;;;;;22.20;63.10;;;;;;5006498;28;20407;-75
2022/09/11 04:58:28;;;;;;;;;;;22.20;63.00;;;;;;5006478;28;19929;-75
2022/09/11 05:00:53;;;;;;;;;;;22.20;62.80;;;;;;4991378;28;20269;-76
2022/09/11 05:03:19;;;;;;;;;;;22.20;62.80;;;;;;5004699;28;20008;-75
2022/09/11 05:05:45;;;;;;;;;;;22.20;62.70;;;;;;5006090;28;19914;-75
2022/09/11 05:08:10;;;;;;;;;;;22.20;62.80;;;;;;5003500;28;20457;-75
2022/09/11 05:10:37;;;;;;;;;;;22.10;62.70;;;;;;5003867;28;19914;-75
2022/09/11 05:13:02;;;;;;;;;;;22.10;62.90;;;;;;5007352;28;19932;-75
2022/09/11 05:15:28;;;;;;;;;;;22.20;62.80;;;;;;4988227;28;19925;-76
2022/09/11 05:17:54;;;;;;;;;;;22.20;62.70;;;;;;5004887;28;19913;-75
2022/09/11 05:20:19;;;;;;;;;;;22.10;62.70;;;;;;5006670;28;20661;-75
2022/09/11 05:22:45;;;;;;;;;;;22.10;62.70;;;;;;5004923;28;19926;-75
2022/09/11 05:25:12;;;;;;;;;;;22.10;62.70;;;;;;5006761;28;19913;-74
2022/09/11 05:27:37;;;;;;;;;;;22.10;62.70;;;;;;5004210;28;19918;-74
2022/09/11 05:30:03;;;;;;;;;;;22.10;62.60;;;;;;4991333;28;19940;-74
2022/09/11 05:32:29;;;;;;;;;;;22.10;62.70;;;;;;5008276;28;19964;-75
2022/09/11 05:34:54;;;;;;;;;;;22.10;62.70;;;;;;5008748;28;19968;-75
2022/09/11 05:37:19;;;;;;;;;;;22.10;62.60;;;;;;5010782;28;19914;-75
2022/09/11 05:39:45;;;;;;;;;;;22.10;62.60;;;;;;5011625;28;19921;-75
2022/09/11 05:42:10;;;;;;;;;;;22.10;62.50;;;;;;5013189;28;19917;-75
2022/09/11 05:44:36;;;;;;;;;;;22.10;62.60;;;;;;5009930;28;19921;-75
2022/09/11 05:47:01;;;;;;;;;;;22.00;62.70;;;;;;5012177;28;19953;-75
2022/09/11 05:49:27;;;;;;;;;;;22.00;62.80;;;;;;5011027;28;19917;-75
2022/09/11 05:51:52;;;;;;;;;;;22.10;63.00;;;;;;5008977;28;20052;-75
2022/09/11 05:54:18;;;;;;;;;;;22.00;62.80;;;;;;4993488;28;19914;-74
2022/09/11 05:56:43;;;;;;;;;;;22.10;62.90;;;;;;5008017;28;19914;-76
2022/09/11 05:59:12;;;;;;;;;;;22.10;62.90;;;;;;5009828;28;19917;-75
2022/09/11 06:01:38;;;;;;;;;;;22.10;62.80;;;;;;5014611;28;19922;-75
2022/09/11 06:04:07;;;;;;;;;;;22.10;62.80;;;;;;5014998;28;20389;-75
2022/09/11 06:06:33;;;;;;;;;;;22.10;62.80;;;;;;4998511;28;19940;-75
2022/09/11 06:08:59;;;;;;;;;;;22.00;62.80;;;;;;5015885;28;19913;-73
2022/09/11 06:11:24;;;;;;;;;;;22.00;63.00;;;;;;5016500;28;19932;-75
2022/09/11 06:13:50;;;;;;;;;;;22.00;63.10;;;;;;5012351;28;19925;-75
2022/09/11 06:16:16;;;;;;;;;;;22.00;63.10;;;;;;5008254;28;19913;-75
2022/09/11 06:18:41;;;;;;;;;;;22.00;63.10;;;;;;5010289;28;20250;-75
2022/09/11 06:21:09;;;;;;;;;;;22.00;63.00;;;;;;5007256;28;19979;-74
2022/09/11 06:23:34;;;;;;;;;;;22.00;63.20;;;;;;5010037;28;19952;-75
2022/09/11 06:26:04;;;;;;;;;;;21.90;63.10;;;;;;5006329;28;19960;-75
2022/09/11 06:28:29;;;;;;;;;;;22.00;63.10;;;;;;5002921;28;19917;-75
2022/09/11 06:30:55;;;;;;;;;;;22.00;63.00;;;;;;5003657;28;19913;-75
2022/09/11 06:33:20;;;;;;;;;;;22.00;62.90;;;;;;5007081;28;19921;-75
2022/09/11 06:35:56;;;;;;;;;;;22.00;62.90;;;;;;4990956;28;19914;-74
2022/09/11 06:38:22;;;;;;;;;;;22.00;62.80;;;;;;5007855;28;20332;-75
2022/09/11 06:40:47;;;;;;;;;;;22.00;62.70;;;;;;5009316;28;19917;-75
2022/09/11 06:43:13;;;;;;;;;;;22.00;62.90;;;;;;5003249;28;19967;-75
2022/09/11 06:45:39;;;;;;;;;;;22.00;62.90;;;;;;5006325;28;19952;-74
2022/09/11 06:48:05;;;;;;;;;;;22.00;62.90;;;;;;5006468;28;20324;-75
2022/09/11 06:50:34;;;;;;;;;;;22.00;62.90;;;;;;5006787;28;19960;-76
2022/09/11 06:53:00;;;;;;;;;;;22.00;62.80;;;;;;4990558;28;19914;-75
2022/09/11 06:55:26;;;;;;;;;;;22.00;62.70;;;;;;4991963;28;19930;-75
2022/09/11 06:57:52;;;;;;;;;;;22.00;62.60;;;;;;5009962;28;19913;-75
2022/09/11 07:00:17;;;;;;;;;;;22.00;62.60;;;;;;5008821;28;20421;-76
2022/09/11 07:02:44;;;;;;;;;;;22.10;62.70;;;;;;5010909;28;19970;-76
2022/09/11 07:05:09;;;;;;;;;;;22.00;62.60;;;;;;5013838;28;19925;-74
2022/09/11 07:07:35;;;;;;;;;;;22.00;62.60;;;;;;5013844;28;19922;-75
2022/09/11 07:10:03;;;;;;;;;;;22.00;62.60;;;;;;5014144;28;19914;-75
2022/09/11 07:12:30;;;;;;;;;;;22.00;62.70;;;;;;5015966;28;20401;-75
2022/09/11 07:14:56;;;;;;;;;;;22.00;62.70;;;;;;5016251;28;19916;-75
2022/09/11 07:17:21;;;;;;;;;;;22.00;62.60;;;;;;5014605;28;19909;-76
2022/09/11 07:19:47;;;;;;;;;;;22.00;62.60;;;;;;4992434;28;19921;-75
2022/09/11 07:22:13;;;;;;;;;;;22.10;62.60;;;;;;5007409;28;19929;-75
2022/09/11 07:24:39;;;;;;;;;;;22.00;62.50;;;;;;5008686;28;19913;-74
2022/09/11 07:27:04;;;;;;;;;;;22.00;62.60;;;;;;5005571;28;19913;-74
2022/09/11 07:29:30;;;;;;;;;;;22.00;62.80;;;;;;5008940;28;19918;-75
2022/09/11 07:31:57;;;;;;;;;;;22.00;62.80;;;;;;4984118;28;19914;-75
2022/09/11 07:34:22;;;;;;;;;;;22.00;62.80;;;;;;4992858;28;19979;-75
2022/09/11 07:36:50;;;;;;;;;;;22.00;62.80;;;;;;4990076;28;20443;-74
2022/09/11 07:39:16;;;;;;;;;;;22.00;62.70;;;;;;5007481;28;20354;-75
2022/09/11 07:41:41;;;;;;;;;;;22.10;62.80;;;;;;5008611;28;20012;-75
2022/09/11 07:44:07;;;;;;;;;;;22.10;62.70;;;;;;5006655;28;19961;-74
2022/09/11 07:46:32;;;;;;;;;;;22.10;62.60;;;;;;5001429;28;19925;-74
2022/09/11 07:48:58;;;;;;;;;;;22.10;62.50;;;;;;5008646;28;20312;-75
2022/09/11 07:51:25;;;;;;;;;;;22.10;62.50;;;;;;5004929;28;19956;-75
2022/09/11 07:53:51;;;;;;;;;;;22.10;62.40;;;;;;4990572;28;19913;-74
2022/09/11 07:56:23;;;;;;;;;;;22.10;62.40;;;;;;5001744;28;19913;-74
2022/09/11 07:58:49;;;;;;;;;;;22.10;62.30;;;;;;4990252;28;19917;-75
2022/09/11 08:01:15;;;;;;;;;;;22.10;62.30;;;;;;4985464;28;19918;-74
2022/09/11 08:03:41;;;;;;;;;;;22.10;62.30;;;;;;5004556;28;19918;-75
2022/09/11 08:06:08;;;;;;;;;;;22.10;62.30;;;;;;5007727;28;19932;-75
2022/09/11 08:08:34;;;;;;;;;;;22.10;62.40;;;;;;5004232;28;19918;-74
2022/09/11 08:11:03;;;;;;;;;;;22.10;62.30;;;;;;5000304;28;19921;-75
2022/09/11 08:13:28;;;;;;;;;;;22.10;62.30;;;;;;5005188;28;19917;-75
2022/09/11 08:15:55;;;;;;;;;;;22.20;62.40;;;;;;5002752;28;19917;-75
2022/09/11 08:18:21;;;;;;;;;;;22.10;62.30;;;;;;5006380;28;20003;-76
2022/09/11 08:20:48;;;;;;;;;;;22.10;62.30;;;;;;5004187;28;20392;-74
2022/09/11 08:23:14;;;;;;;;;;;22.10;62.30;;;;;;5002108;28;19918;-74
2022/09/11 08:25:39;;;;;;;;;;;22.10;62.30;;;;;;5001924;28;19914;-75
2022/09/11 08:28:05;;;;;;;;;;;22.10;62.20;;;;;;5003739;28;19914;-75
2022/09/11 08:30:31;;;;;;;;;;;22.10;62.20;;;;;;5007239;28;19963;-76
2022/09/11 08:32:56;;;;;;;;;;;22.10;62.30;;;;;;4986486;28;20277;-76
2022/09/11 08:35:22;;;;;;;;;;;22.10;62.30;;;;;;5003706;28;19929;-75
2022/09/11 08:37:47;;;;;;;;;;;22.10;62.30;;;;;;5007454;28;20435;-75
2022/09/11 08:40:12;;;;;;;;;;;22.10;62.30;;;;;;5002440;28;20376;-75
2022/09/11 08:42:42;;;;;;;;;;;22.10;62.30;;;;;;5005976;28;20348;-75
2022/09/11 08:45:13;;;;;;;;;;;22.10;62.30;;;;;;4985955;28;19917;-74
2022/09/11 08:47:40;;;;;;;;;;;22.10;62.30;;;;;;4995857;28;20008;-75
2022/09/11 08:50:14;;;;;;;;;;;22.10;62.20;;;;;;5011300;28;20322;-75
2022/09/11 08:52:41;;;;;;;;;;;22.10;62.20;;;;;;5017232;28;19921;-76
2022/09/11 08:55:14;;;;;;;;;;;22.10;62.30;;;;;;5011133;28;19960;-75
2022/09/11 08:57:59;;;;;;;;;;;22.10;62.20;;;;;;5011712;28;19914;-75
2022/09/11 09:00:39;;;;;;;;;;;22.10;62.20;;;;;;5021062;28;19932;-75
2022/09/11 09:03:07;;;;;;;;;;;22.10;62.20;;;;;;5012731;28;19928;-75
2022/09/11 09:05:36;;;;;;;;;;;22.10;62.20;;;;;;5012346;28;19914;-75
2022/09/11 09:08:07;;;;;;;;;;;22.20;62.10;;;;;;5003774;28;20754;-75
2022/09/11 09:10:40;;;;;;;;;;;22.20;62.10;;;;;;5007322;28;20290;-75
2022/09/11 09:13:11;;;;;;;;;;;22.20;62.10;;;;;;5004751;28;20005;-75
2022/09/11 09:15:40;;;;;;;;;;;22.20;62.00;;;;;;5012810;28;19920;-75
2022/09/11 09:18:25;;;;;;;;;;;22.20;61.90;;;;;;5006584;28;20554;-73
2022/09/11 09:20:59;;;;;;;;;;;22.20;61.80;;;;;;5003927;28;19918;-75
2022/09/11 09:23:27;;;;;;;;;;;22.20;61.90;;;;;;5008297;28;20000;-74
2022/09/11 09:25:53;;;;;;;;;;;22.20;61.90;;;;;;5009427;28;20558;-74
2022/09/11 09:28:18;;;;;;;;;;;22.20;62.30;;;;;;5012329;28;19960;-74
2022/09/11 09:30:46;;;;;;;;;;;22.20;62.20;;;;;;5014670;28;19921;-75
2022/09/11 09:33:37;;;;;;;;;;;22.10;62.10;;;;;;5019327;28;20008;-75
2022/09/11 09:36:23;;;;;;;;;;;22.20;62.00;;;;;;5008813;28;20000;-75
2022/09/11 09:38:48;;;;;;;;;;;22.20;61.90;;;;;;5005413;28;19956;-75
2022/09/11 09:41:33;;;;;;;;;;;22.10;61.80;;;;;;4992924;28;19919;-75
2022/09/11 09:44:03;;;;;;;;;;;22.10;62.00;;;;;;5012864;28;19921;-75
2022/09/11 09:46:40;;;;;;;;;;;22.10;62.20;;;;;;5001468;28;19914;-75
2022/09/11 09:49:25;;;;;;;;;;;22.10;62.30;;;;;;4992441;28;19913;-76
2022/09/11 09:51:50;;;;;;;;;;;22.10;63.00;;;;;;4995579;28;19922;-75
2022/09/11 09:54:16;;;;;;;;;;;22.10;62.00;;;;;;5010203;28;19920;-75
2022/09/11 09:56:43;;;;;;;;;;;22.10;61.90;;;;;;5010968;28;20059;-75
2022/09/11 09:59:19;;;;;;;;;;;22.10;62.10;;;;;;5010242;28;20281;-76
2022/09/11 10:01:49;;;;;;;;;;;22.00;62.20;;;;;;5017905;28;20072;-75
2022/09/11 10:04:16;;;;;;;;;;;22.00;62.00;;;;;;5029223;28;20376;-75
2022/09/11 10:06:44;;;;;;;;;;;22.00;62.30;;;;;;5029701;28;19913;-75
2022/09/11 10:09:26;;;;;;;;;;;21.90;62.80;;;;;;4995002;28;20361;-75
2022/09/11 10:11:52;;;;;;;;;;;22.00;62.50;;;;;;4995288;28;19914;-75
2022/09/11 10:14:20;;;;;;;;;;;22.00;62.60;;;;;;5011424;28;19917;-74
2022/09/11 10:16:48;;;;;;;;;;;22.00;62.80;;;;;;5012949;28;19919;-75
2022/09/11 10:19:32;;;;;;;;;;;22.00;63.10;;;;;;5015847;28;19918;-75
2022/09/11 10:22:12;;;;;;;;;;;21.90;62.50;;;;;;5013875;28;19921;-75
2022/09/11 10:24:40;;;;;;;;;;;21.90;62.40;;;;;;4999599;28;19957;-75
2022/09/11 10:27:08;;;;;;;;;;;21.90;62.50;;;;;;5013926;28;19921;-74
2022/09/11 10:29:34;;;;;;;;;;;22.00;62.60;;;;;;5028231;28;19968;-74
2022/09/11 10:32:03;;;;;;;;;;;22.00;62.60;;;;;;4998673;28;19913;-75
2022/09/11 10:34:35;;;;;;;;;;;22.00;62.40;;;;;;5014207;28;19917;-75
2022/09/11 10:37:12;;;;;;;;;;;22.00;63.00;;;;;;4993987;28;19914;-75
2022/09/11 10:39:39;;;;;;;;;;;22.00;62.30;;;;;;5010244;28;19964;-74
2022/09/11 10:42:15;;;;;;;;;;;21.90;62.20;;;;;;5014246;28;20262;-75
2022/09/11 10:44:44;;;;;;;;;;;22.00;62.10;;;;;;5020464;28;19997;-75
2022/09/11 10:47:16;;;;;;;;;;;22.00;62.80;;;;;;5015659;28;19913;-76
2022/09/11 10:49:42;;;;;;;;;;;22.00;62.30;;;;;;5013308;28;19914;-75
2022/09/11 10:52:07;;;;;;;;;;;22.00;62.30;;;;;;5012601;28;20447;-75
2022/09/11 10:54:52;;;;;;;;;;;22.10;62.00;;;;;;5014343;28;19972;-76
2022/09/11 10:57:27;;;;;;;;;;;22.10;61.70;;;;;;5013521;28;20015;-74
2022/09/11 11:00:11;;;;;;;;;;;22.10;62.00;;;;;;5014040;28;20408;-74
2022/09/11 11:02:41;;;;;;;;;;;22.10;62.30;;;;;;5010594;28;19926;-75
2022/09/11 11:05:18;;;;;;;;;;;22.10;62.20;;;;;;5011351;28;19914;-75
2022/09/11 11:07:47;;;;;;;;;;;22.10;62.30;;;;;;5007563;28;19965;-75
2022/09/11 11:10:18;;;;;;;;;;;22.20;62.10;;;;;;4995405;28;20132;-75
2022/09/11 11:12:44;;;;;;;;;;;22.20;62.20;;;;;;4992092;28;19972;-75
2022/09/11 11:15:15;;;;;;;;;;;22.20;62.00;;;;;;4994648;28;20425;-75
2022/09/11 11:17:48;;;;;;;;;;;22.20;61.90;;;;;;5007185;28;19921;-75
2022/09/11 11:20:14;;;;;;;;;;;22.30;61.60;;;;;;5007002;28;19993;-76
2022/09/11 11:22:40;;;;;;;;;;;22.30;61.30;;;;;;5007116;28;19939;-75
2022/09/11 11:25:11;;;;;;;;;;;22.30;61.10;;;;;;4994518;28;19914;-75
2022/09/11 11:27:43;;;;;;;;;;;22.30;61.40;;;;;;4993022;28;19914;-74
2022/09/11 11:30:09;;;;;;;;;;;22.30;61.10;;;;;;5004157;28;19957;-74
2022/09/11 11:32:35;;;;;;;;;;;22.40;61.10;;;;;;4989304;28;19949;-74
2022/09/11 11:35:07;;;;;;;;;;;22.40;60.80;;;;;;4993525;28;19976;-75
2022/09/11 11:37:33;;;;;;;;;;;22.40;60.70;;;;;;4993133;28;19920;-76
2022/09/11 11:40:08;;;;;;;;;;;22.50;60.60;;;;;;4993757;28;19968;-74
2022/09/11 11:42:36;;;;;;;;;;;22.50;60.10;;;;;;5005153;28;19921;-75
2022/09/11 11:45:04;;;;;;;;;;;22.40;59.90;;;;;;5000284;28;20317;-74
2022/09/11 11:47:31;;;;;;;;;;;22.40;59.90;;;;;;5004370;28;19913;-75
2022/09/11 11:50:15;;;;;;;;;;;22.40;60.20;;;;;;4976858;28;20044;-75
2022/09/11 11:52:42;;;;;;;;;;;22.40;60.00;;;;;;4987349;28;20374;-74
2022/09/11 11:55:15;;;;;;;;;;;22.40;59.90;;;;;;4994147;28;19968;-75
2022/09/11 11:57:42;;;;;;;;;;;22.30;59.80;;;;;;5006254;28;19914;-74
2022/09/11 12:00:09;;;;;;;;;;;22.30;59.90;;;;;;5012146;28;19910;-74
2022/09/11 12:02:35;;;;;;;;;;;22.20;60.00;;;;;;5000313;28;19924;-74
2022/09/11 12:05:02;;;;;;;;;;;22.30;60.10;;;;;;5000818;28;19913;-75
2022/09/11 12:07:29;;;;;;;;;;;22.30;59.90;;;;;;4976484;28;19924;-74
2022/09/11 12:09:55;;;;;;;;;;;22.20;59.70;;;;;;5005832;28;19918;-74
2022/09/11 12:12:20;;;;;;;;;;;22.30;59.70;;;;;;4996471;28;19922;-74
2022/09/11 12:14:53;;;;;;;;;;;22.30;59.60;;;;;;5013592;28;19930;-74
2022/09/11 12:17:26;;;;;;;;;;;22.30;59.70;;;;;;4997534;28;19910;-74
2022/09/11 12:20:10;;;;;;;;;;;22.30;59.50;;;;;;4995678;28;19917;-74
2022/09/11 12:22:37;;;;;;;;;;;22.20;59.40;;;;;;4989867;28;19985;-75
2022/09/11 12:25:17;;;;;;;;;;;22.30;59.50;;;;;;4978451;28;22290;-75
2022/09/11 12:27:42;;;;;;;;;;;22.30;59.50;;;;;;4994527;28;19914;-74
2022/09/11 12:30:08;;;;;;;;;;;22.20;59.30;;;;;;4994142;28;20373;-74
2022/09/11 12:32:44;;;;;;;;;;;22.30;59.20;;;;;;4995178;28;19922;-75
2022/09/11 12:35:19;;;;;;;;;;;22.30;59.30;;;;;;4994049;28;19968;-75
2022/09/11 12:38:12;;;;;;;;;;;22.30;59.10;;;;;;4996973;28;20297;-75
2022/09/11 12:40:37;;;;;;;;;;;22.30;59.20;;;;;;5009934;28;19921;-75
2022/09/11 12:43:06;;;;;;;;;;;22.40;59.30;;;;;;4997058;28;19918;-75
2022/09/11 12:45:33;;;;;;;;;;;22.40;59.00;;;;;;5013148;28;19917;-74
2022/09/11 12:48:03;;;;;;;;;;;22.50;58.90;;;;;;4994557;28;19914;-75
2022/09/11 12:50:28;;;;;;;;;;;22.50;58.80;;;;;;5011037;28;19981;-75
2022/09/11 12:52:56;;;;;;;;;;;22.50;58.70;;;;;;4992632;28;19968;-76
2022/09/11 12:55:42;;;;;;;;;;;22.40;58.50;;;;;;5004087;28;20370;-76
2022/09/11 12:58:19;;;;;;;;;;;22.40;58.30;;;;;;5006781;28;19921;-75
2022/09/11 13:00:46;;;;;;;;;;;22.40;58.00;;;;;;4990172;28;20101;-76
2022/09/11 13:03:16;;;;;;;;;;;22.30;58.10;;;;;;4969487;28;19928;-76
2022/09/11 13:05:42;;;;;;;;;;;22.40;58.00;;;;;;4999810;28;20267;-76
2022/09/11 13:08:14;;;;;;;;;;;22.30;58.00;;;;;;4986335;28;19972;-75
2022/09/11 13:10:39;;;;;;;;;;;22.30;58.00;;;;;;5000957;28;19914;-75
2022/09/11 13:13:06;;;;;;;;;;;22.30;57.90;;;;;;4982124;28;20044;-75
2022/09/11 13:15:35;;;;;;;;;;;22.30;57.80;;;;;;5000931;28;20044;-76
2022/09/11 13:18:14;;;;;;;;;;;22.30;57.60;;;;;;5001993;28;19917;-75
2022/09/11 13:20:39;;;;;;;;;;;22.30;57.60;;;;;;4984259;28;19918;-76
2022/09/11 13:23:14;;;;;;;;;;;22.30;57.40;;;;;;4970125;28;19980;-77
2022/09/11 13:25:39;;;;;;;;;;;22.30;57.20;;;;;;5002962;28;19913;-74
2022/09/11 13:28:05;;;;;;;;;;;22.40;57.10;;;;;;5005896;28;20017;-75
2022/09/11 13:30:31;;;;;;;;;;;22.30;57.40;;;;;;4996456;28;19914;-74
2022/09/11 13:33:07;;;;;;;;;;;22.30;57.50;;;;;;4999594;28;19914;-74
2022/09/11 13:35:32;;;;;;;;;;;22.40;57.60;;;;;;4987357;28;19921;-75
2022/09/11 13:38:02;;;;;;;;;;;22.40;57.60;;;;;;4971233;28;19914;-75
2022/09/11 13:40:37;;;;;;;;;;;22.40;57.60;;;;;;4984687;28;19913;-74
2022/09/11 13:43:02;;;;;;;;;;;22.40;57.50;;;;;;4979088;28;19930;-74
2022/09/11 13:45:28;;;;;;;;;;;22.40;57.50;;;;;;5003881;28;19923;-74
2022/09/11 13:47:53;;;;;;;;;;;22.50;57.70;;;;;;5004046;28;20366;-74
2022/09/11 13:50:19;;;;;;;;;;;22.50;57.70;;;;;;4968879;28;20395;-74
2022/09/11 13:52:45;;;;;;;;;;;22.60;57.70;;;;;;5004439;28;19921;-75
2022/09/11 13:55:16;;;;;;;;;;;22.60;57.50;;;;;;5007144;28;20097;-74
2022/09/11 13:57:52;;;;;;;;;;;22.60;57.30;;;;;;4981228;28;19914;-74
2022/09/11 14:00:37;;;;;;;;;;;22.70;57.30;;;;;;4987261;28;20003;-76
2022/09/11 14:03:03;;;;;;;;;;;22.70;57.20;;;;;;4997082;28;19936;-74
2022/09/11 14:05:31;;;;;;;;;;;22.80;57.10;;;;;;5003530;28;20285;-75
2022/09/11 14:07:58;;;;;;;;;;;22.80;57.00;;;;;;5007628;28;19925;-74
2022/09/11 14:10:28;;;;;;;;;;;22.90;56.90;;;;;;5011222;28;20377;-74
2022/09/11 14:12:54;;;;;;;;;;;22.90;56.90;;;;;;5006629;28;19959;-75
2022/09/11 14:15:23;;;;;;;;;;;22.90;56.80;;;;;;5010693;28;19917;-75
2022/09/11 14:17:49;;;;;;;;;;;22.90;56.70;;;;;;4991931;28;19924;-75
2022/09/11 14:20:16;;;;;;;;;;;22.90;56.60;;;;;;4999385;28;20017;-75
2022/09/11 14:22:41;;;;;;;;;;;22.90;56.70;;;;;;5012278;28;19925;-75